You are not logged in, Click here to log in
蘇黎世機場ZRH / LSZH 瑞士蘇黎世州
ICAO: LSZH Country: 瑞士蘇黎世州
Latitude: 47.4582 Longitude: 8.55548
Total Arrivals: 14 Total Departures: 16
Latest Arrival: LX139 (VHHH-LSZH)Mori. Yang Latest Departure: LX180 (LSZH-VTBS)Mori. Yang
Scenery:
METAR : LSZH 190450Z 25015KT 9999 FEW035 SCT045 05/M01 Q1023 NOSIG

蘇黎世機場ZRH

You are accessing this site from IP address 35.175.113.29. Virtual Airline. CMS by phpVMS.Website designed by Zumeweb and edited by Theo Bearman.
There is 0 User(s) Online: | and 3 Guest(s) Online.
All information on this site is for fight simulation purposes only. This site is for flight logging for pilots of Virtual Airline&模擬飛行論壇 FlySim only.